createdAt,value
2022-09-02T00:01:35.690Z,2.27
2022-09-02T00:04:04.255Z,2.03
2022-09-02T00:06:31.733Z,2.20
2022-09-02T00:08:59.371Z,2.77
2022-09-02T00:11:28.543Z,2.53
2022-09-02T00:13:56.093Z,2.10
2022-09-02T00:16:24.090Z,2.37
2022-09-02T00:18:52.188Z,2.00
2022-09-02T00:21:19.953Z,1.90
2022-09-02T00:23:46.850Z,2.00
2022-09-02T00:26:14.112Z,1.97
2022-09-02T00:28:48.886Z,2.10
2022-09-02T00:31:18.985Z,2.10
2022-09-02T00:33:46.173Z,2.23
2022-09-02T00:36:14.053Z,1.80
2022-09-02T00:38:41.639Z,2.20
2022-09-02T00:41:10.235Z,1.70
2022-09-02T00:43:38.120Z,2.10
2022-09-02T00:46:05.289Z,2.03
2022-09-02T00:48:32.978Z,2.20
2022-09-02T00:51:00.555Z,1.67
2022-09-02T00:53:28.200Z,2.30
2022-09-02T00:55:55.246Z,1.63
2022-09-02T00:58:28.410Z,1.80
2022-09-02T01:00:59.749Z,1.70
2022-09-02T01:03:28.563Z,1.50
2022-09-02T01:05:57.219Z,1.67
2022-09-02T01:08:27.579Z,1.80
2022-09-02T01:10:55.960Z,1.80
2022-09-02T01:13:25.369Z,1.60
2022-09-02T01:15:54.332Z,1.80
2022-09-02T01:18:29.596Z,1.77
2022-09-02T01:20:57.667Z,1.60
2022-09-02T01:23:25.208Z,1.53
2022-09-02T01:25:52.244Z,1.60
2022-09-02T01:28:20.145Z,1.73
2022-09-02T01:30:51.654Z,1.60
2022-09-02T01:33:19.254Z,1.73
2022-09-02T01:35:49.668Z,1.67
2022-09-02T01:38:16.880Z,1.60
2022-09-02T01:40:44.005Z,1.53
2022-09-02T01:43:12.867Z,1.90
2022-09-02T01:45:40.754Z,1.63
2022-09-02T01:48:08.800Z,1.93
2022-09-02T01:50:42.629Z,1.60
2022-09-02T01:53:14.858Z,1.80
2022-09-02T01:55:41.932Z,1.70
2022-09-02T01:58:09.456Z,1.70
2022-09-02T02:00:36.502Z,1.77
2022-09-02T02:03:03.757Z,1.70
2022-09-02T02:05:32.152Z,1.80
2022-09-02T02:08:00.094Z,2.23
2022-09-02T02:10:27.426Z,1.83
2022-09-02T02:12:54.352Z,1.80
2022-09-02T02:17:50.023Z,1.90
2022-09-02T02:20:18.165Z,1.70
2022-09-02T02:22:45.081Z,2.10
2022-09-02T02:25:12.709Z,1.83
2022-09-02T02:27:41.739Z,2.40
2022-09-02T02:30:12.149Z,2.20
2022-09-02T02:32:40.069Z,2.00
2022-09-02T02:35:07.517Z,1.83
2022-09-02T02:37:34.913Z,2.07
2022-09-02T02:40:01.973Z,1.70
2022-09-02T02:42:30.143Z,2.07
2022-09-02T02:44:57.173Z,1.87
2022-09-02T02:47:25.194Z,1.63
2022-09-02T02:49:52.118Z,2.00
2022-09-02T02:52:19.156Z,1.40
2022-09-02T02:54:46.076Z,1.87
2022-09-02T02:57:13.095Z,1.83
2022-09-02T02:59:39.984Z,1.50
2022-09-02T03:02:07.720Z,1.63
2022-09-02T03:04:35.488Z,1.83
2022-09-02T03:07:03.235Z,2.00
2022-09-02T03:09:31.571Z,1.97
2022-09-02T03:11:59.289Z,2.10
2022-09-02T03:14:26.851Z,2.37
2022-09-02T03:16:54.096Z,2.10
2022-09-02T03:19:20.962Z,1.87
2022-09-02T03:21:47.917Z,2.10
2022-09-02T03:24:14.935Z,2.60
2022-09-02T03:26:42.276Z,2.30
2022-09-02T03:29:10.640Z,1.90
2022-09-02T03:31:38.247Z,1.80
2022-09-02T03:34:08.059Z,1.97
2022-09-02T03:36:37.309Z,2.60
2022-09-02T03:39:05.341Z,2.30
2022-09-02T03:41:37.031Z,2.13
2022-09-02T03:44:04.073Z,2.10
2022-09-02T03:46:32.304Z,2.03
2022-09-02T03:48:59.316Z,2.13
2022-09-02T03:51:26.529Z,2.40
2022-09-02T03:53:54.098Z,2.33
2022-09-02T03:56:21.436Z,2.43
2022-09-02T03:58:49.901Z,2.33
2022-09-02T04:01:21.645Z,2.20
2022-09-02T04:03:49.163Z,2.37
2022-09-02T04:06:18.081Z,2.40
2022-09-02T04:08:45.258Z,2.23
2022-09-02T04:11:16.616Z,2.53
2022-09-02T04:13:45.790Z,2.27
2022-09-02T04:16:17.839Z,2.10
2022-09-02T04:18:45.285Z,2.30
2022-09-02T04:21:12.835Z,2.63
2022-09-02T04:23:40.607Z,2.30
2022-09-02T04:26:09.543Z,2.17
2022-09-02T04:28:37.268Z,1.97
2022-09-02T04:31:08.228Z,2.43
2022-09-02T04:33:37.314Z,2.40
2022-09-02T04:36:05.844Z,2.63
2022-09-02T04:38:33.730Z,2.40
2022-09-02T04:41:00.604Z,2.43
2022-09-02T04:43:28.140Z,2.40
2022-09-02T04:45:56.005Z,2.70
2022-09-02T04:48:24.270Z,3.20
2022-09-02T04:50:51.240Z,2.20
2022-09-02T04:53:20.329Z,2.70
2022-09-02T04:55:48.068Z,2.70
2022-09-02T04:58:16.907Z,2.67
2022-09-02T05:00:47.498Z,3.00
2022-09-02T05:03:16.146Z,2.33
2022-09-02T05:05:45.574Z,2.63
2022-09-02T05:08:13.397Z,2.50
2022-09-02T05:10:43.580Z,3.00
2022-09-02T05:13:11.107Z,3.20
2022-09-02T05:15:41.018Z,2.90
2022-09-02T05:18:10.524Z,3.07
2022-09-02T05:20:40.195Z,3.33
2022-09-02T05:23:07.348Z,3.17
2022-09-02T05:25:34.225Z,3.10
2022-09-02T05:28:01.185Z,3.53
2022-09-02T05:30:28.181Z,3.20
2022-09-02T05:32:55.465Z,3.30
2022-09-02T05:35:23.499Z,3.03
2022-09-02T05:37:50.818Z,3.43
2022-09-02T05:40:17.807Z,2.93
2022-09-02T05:42:50.611Z,3.40
2022-09-02T05:45:17.852Z,3.40
2022-09-02T05:47:44.980Z,3.30
2022-09-02T05:50:14.314Z,3.40
2022-09-02T05:52:43.153Z,3.50
2022-09-02T05:55:10.546Z,3.47
2022-09-02T05:57:39.721Z,3.40
2022-09-02T06:00:08.899Z,3.27
2022-09-02T06:02:42.430Z,3.30
2022-09-02T06:05:14.851Z,3.30
2022-09-02T06:07:47.635Z,3.67
2022-09-02T06:10:14.597Z,3.23
2022-09-02T06:12:42.920Z,3.67
2022-09-02T06:15:11.172Z,2.80
2022-09-02T06:17:40.435Z,3.10
2022-09-02T06:20:09.997Z,2.80
2022-09-02T06:22:39.812Z,3.00
2022-09-02T06:25:10.744Z,2.43
2022-09-02T06:27:38.681Z,2.83
2022-09-02T06:30:06.093Z,2.57
2022-09-02T06:32:33.290Z,3.03
2022-09-02T06:35:04.166Z,2.50
2022-09-02T06:37:34.777Z,2.70
2022-09-02T06:40:01.800Z,2.27
2022-09-02T06:42:30.993Z,2.43
2022-09-02T06:45:14.558Z,2.53
2022-09-02T06:47:41.541Z,2.40
2022-09-02T06:50:09.117Z,1.87
2022-09-02T06:52:36.225Z,2.30
2022-09-02T06:55:05.396Z,2.50
2022-09-02T06:57:34.169Z,2.63
2022-09-02T07:00:07.988Z,2.30
2022-09-02T07:02:35.336Z,2.40
2022-09-02T07:05:10.040Z,2.37
2022-09-02T07:07:38.621Z,2.40
2022-09-02T07:10:10.505Z,2.13
2022-09-02T07:12:39.025Z,2.87
2022-09-02T07:15:09.600Z,2.50
2022-09-02T07:17:39.311Z,2.77
2022-09-02T07:20:10.989Z,2.30
2022-09-02T07:22:42.885Z,2.23
2022-09-02T07:25:13.983Z,2.30
2022-09-02T07:27:41.017Z,2.40
2022-09-02T07:30:08.272Z,2.70
2022-09-02T07:32:39.524Z,2.23
2022-09-02T07:35:08.048Z,2.27
2022-09-02T07:37:35.899Z,2.10
2022-09-02T07:40:06.632Z,2.60
2022-09-02T07:42:34.025Z,2.20
2022-09-02T07:45:01.481Z,2.50
2022-09-02T07:47:28.782Z,2.70
2022-09-02T07:52:44.034Z,2.10
2022-09-02T07:55:14.884Z,2.50
2022-09-02T07:57:44.411Z,2.53
2022-09-02T08:00:12.540Z,2.13
2022-09-02T08:02:42.514Z,2.07
2022-09-02T08:05:13.448Z,2.20
2022-09-02T08:07:40.441Z,2.17
2022-09-02T08:10:09.965Z,2.30
2022-09-02T08:12:37.514Z,2.43
2022-09-02T08:15:05.145Z,1.50
2022-09-02T08:17:32.193Z,1.70
2022-09-02T08:19:59.023Z,2.00
2022-09-02T08:22:27.301Z,1.50
2022-09-02T08:24:54.108Z,1.40
2022-09-02T08:27:21.211Z,1.30
2022-09-02T08:29:48.375Z,1.80
2022-09-02T08:32:15.340Z,1.00
2022-09-02T08:34:42.269Z,1.03
2022-09-02T08:37:09.201Z,1.00
2022-09-02T08:39:38.350Z,1.20
2022-09-02T08:42:11.186Z,0.90
2022-09-02T08:44:38.459Z,0.60
2022-09-02T08:47:06.622Z,0.80
2022-09-02T08:49:35.390Z,0.80
2022-09-02T08:52:03.637Z,0.80
2022-09-02T08:54:36.649Z,0.60
2022-09-02T08:57:03.802Z,1.57
2022-09-02T08:59:31.893Z,0.80
2022-09-02T09:02:05.743Z,0.87
2022-09-02T09:04:56.336Z,0.70
2022-09-02T09:07:33.495Z,0.60
2022-09-02T09:10:11.619Z,0.97
2022-09-02T09:12:44.716Z,0.70
2022-09-02T09:15:25.618Z,0.87
2022-09-02T09:18:00.543Z,1.10
2022-09-02T09:20:33.268Z,1.13
2022-09-02T09:23:01.623Z,1.07
2022-09-02T09:25:32.623Z,1.10
2022-09-02T09:28:00.367Z,0.70
2022-09-02T09:30:27.835Z,0.80
2022-09-02T09:33:00.379Z,1.00
2022-09-02T09:35:29.299Z,0.83
2022-09-02T09:37:56.748Z,0.70
2022-09-02T09:40:25.901Z,0.60
2022-09-02T09:42:57.432Z,0.60
2022-09-02T09:45:32.442Z,0.70
2022-09-02T09:48:08.621Z,0.63
2022-09-02T09:50:42.662Z,0.60
2022-09-02T09:53:21.101Z,0.87
2022-09-02T09:55:51.106Z,1.00
2022-09-02T09:58:18.283Z,0.87
2022-09-02T10:00:45.414Z,0.67
2022-09-02T10:03:27.507Z,0.70
2022-09-02T10:06:16.884Z,0.77
2022-09-02T10:08:57.336Z,0.50
2022-09-02T10:11:35.227Z,0.70
2022-09-02T10:14:02.067Z,0.50
2022-09-02T10:16:35.453Z,0.50
2022-09-02T10:19:09.654Z,0.87
2022-09-02T10:21:45.293Z,0.70
2022-09-02T10:24:24.228Z,0.70
2022-09-02T10:26:55.053Z,0.70
2022-09-02T10:29:25.051Z,0.80
2022-09-02T10:31:55.129Z,0.70
2022-09-02T10:34:31.625Z,0.70
2022-09-02T10:37:07.684Z,0.80
2022-09-02T10:39:53.385Z,0.63
2022-09-02T10:42:25.700Z,0.80
2022-09-02T10:45:19.233Z,0.80
2022-09-02T10:48:06.559Z,0.50
2022-09-02T10:50:44.577Z,0.60
2022-09-02T10:53:40.120Z,0.93
2022-09-02T10:56:24.455Z,0.50
2022-09-02T10:58:54.748Z,0.70
2022-09-02T11:01:27.052Z,0.60
2022-09-02T11:04:06.437Z,0.43
2022-09-02T11:06:52.069Z,0.50
2022-09-02T11:09:37.889Z,0.43
2022-09-02T11:12:16.561Z,0.70
2022-09-02T11:14:53.683Z,0.53
2022-09-02T11:17:22.081Z,0.30
2022-09-02T11:19:55.168Z,0.40
2022-09-02T11:22:27.737Z,0.50
2022-09-02T11:25:08.614Z,0.60
2022-09-02T11:27:50.877Z,0.67
2022-09-02T11:30:21.230Z,0.40
2022-09-02T11:32:56.759Z,0.60
2022-09-02T11:35:28.116Z,0.60
2022-09-02T11:38:06.428Z,0.50
2022-09-02T11:40:44.789Z,0.60
2022-09-02T11:43:30.580Z,0.70
2022-09-02T11:46:14.637Z,0.77
2022-09-02T11:48:46.271Z,0.70
2022-09-02T11:51:31.645Z,0.90
2022-09-02T11:54:01.236Z,0.60
2022-09-02T11:56:32.093Z,0.50
2022-09-02T11:59:01.269Z,0.80
2022-09-02T12:01:48.292Z,0.77
2022-09-02T12:07:12.788Z,0.60
2022-09-02T12:09:50.032Z,0.50
2022-09-02T12:12:43.102Z,0.80
2022-09-02T12:15:19.944Z,1.23
2022-09-02T12:17:50.488Z,0.60
2022-09-02T12:20:36.501Z,0.73
2022-09-02T12:23:04.113Z,0.70
2022-09-02T12:25:35.888Z,0.67
2022-09-02T12:28:25.306Z,0.60
2022-09-02T12:31:05.571Z,0.50
2022-09-02T12:33:37.100Z,0.40
2022-09-02T12:36:05.207Z,0.50
2022-09-02T12:38:39.512Z,0.47
2022-09-02T12:41:07.942Z,0.40
2022-09-02T12:43:50.877Z,0.50
2022-09-02T12:46:23.985Z,0.40
2022-09-02T12:49:12.105Z,0.50
2022-09-02T12:51:54.492Z,0.50
2022-09-02T12:54:25.053Z,0.60
2022-09-02T12:56:57.296Z,0.47
2022-09-02T12:59:33.718Z,0.80
2022-09-02T13:02:06.922Z,0.73
2022-09-02T13:04:50.662Z,1.30
2022-09-02T13:07:23.568Z,1.03
2022-09-02T13:09:59.711Z,0.90
2022-09-02T13:12:41.855Z,0.97
2022-09-02T13:15:23.044Z,1.30
2022-09-02T13:17:56.303Z,1.20
2022-09-02T13:20:32.444Z,1.20
2022-09-02T13:23:05.532Z,1.00
2022-09-02T13:25:45.753Z,0.80
2022-09-02T13:28:18.841Z,1.77
2022-09-02T13:31:04.782Z,1.33
2022-09-02T13:33:31.803Z,1.00
2022-09-02T13:35:59.750Z,0.60
2022-09-02T13:38:27.952Z,0.70
2022-09-02T13:40:54.852Z,0.70
2022-09-02T13:43:24.203Z,0.70
2022-09-02T13:45:51.959Z,0.80
2022-09-02T13:48:20.888Z,0.60
2022-09-02T13:50:48.718Z,0.50
2022-09-02T13:56:14.248Z,0.50
2022-09-02T13:58:45.097Z,1.00
2022-09-02T14:01:29.361Z,0.80
2022-09-02T14:03:58.193Z,0.63
2022-09-02T14:06:45.781Z,0.87
2022-09-02T14:09:20.778Z,1.43
2022-09-02T14:11:48.680Z,1.37
2022-09-02T14:14:16.563Z,1.13
2022-09-02T14:16:43.613Z,0.30
2022-09-02T14:19:14.776Z,1.20
2022-09-02T14:21:51.772Z,1.20
2022-09-02T14:24:41.961Z,1.10
2022-09-02T14:27:16.641Z,1.40
2022-09-02T14:29:45.403Z,1.10
2022-09-02T14:32:21.576Z,1.00
2022-09-02T14:34:49.920Z,0.77
2022-09-02T14:37:22.270Z,1.20
2022-09-02T14:40:08.807Z,0.77
2022-09-02T14:42:51.749Z,0.90
2022-09-02T14:45:26.529Z,1.20
2022-09-02T14:47:53.538Z,0.63
2022-09-02T14:50:22.395Z,0.70
2022-09-02T14:52:50.332Z,0.80
2022-09-02T14:55:37.404Z,0.80
2022-09-02T14:58:04.492Z,0.73
2022-09-02T15:00:34.712Z,0.50
2022-09-02T15:03:02.030Z,0.77
2022-09-02T15:05:29.425Z,0.80
2022-09-02T15:07:57.050Z,0.70
2022-09-02T15:10:24.012Z,0.50
2022-09-02T15:12:55.226Z,0.70
2022-09-02T15:15:23.016Z,0.70
2022-09-02T15:17:50.008Z,0.80
2022-09-02T15:20:17.759Z,0.73
2022-09-02T15:22:44.810Z,1.23
2022-09-02T15:25:11.788Z,0.80
2022-09-02T15:27:38.884Z,0.90
2022-09-02T15:30:06.637Z,1.00
2022-09-02T15:32:33.697Z,1.00
2022-09-02T15:35:01.082Z,0.80
2022-09-02T15:37:28.195Z,0.70
2022-09-02T15:39:55.578Z,0.90
2022-09-02T15:42:22.601Z,0.73
2022-09-02T15:44:49.793Z,0.87
2022-09-02T15:47:17.156Z,0.70
2022-09-02T15:49:44.264Z,0.83
2022-09-02T15:52:11.477Z,1.00
2022-09-02T15:54:38.380Z,0.77
2022-09-02T15:57:05.576Z,0.80
2022-09-02T15:59:32.588Z,1.10
2022-09-02T16:02:00.849Z,0.77
2022-09-02T16:04:27.787Z,0.70
2022-09-02T16:06:55.038Z,1.00
2022-09-02T16:09:22.226Z,2.30
2022-09-02T16:11:51.002Z,1.00
2022-09-02T16:14:20.799Z,1.70
2022-09-02T16:16:49.440Z,1.27
2022-09-02T16:19:16.820Z,79.77
2022-09-02T16:21:43.747Z,82.93
2022-09-02T16:24:11.037Z,23.00
2022-09-02T16:26:39.080Z,49.13
2022-09-02T16:29:07.448Z,8.70
2022-09-02T16:31:35.460Z,4.63
2022-09-02T16:34:04.131Z,13.83
2022-09-02T16:36:33.382Z,20.97
2022-09-02T16:39:01.285Z,27.33
2022-09-02T16:41:29.494Z,24.80
2022-09-02T16:43:57.837Z,27.40
2022-09-02T16:46:25.506Z,24.67
2022-09-02T16:48:52.745Z,22.13
2022-09-02T16:51:19.641Z,32.23
2022-09-02T16:53:46.863Z,26.03
2022-09-02T16:56:14.660Z,24.03
2022-09-02T16:58:41.695Z,27.50
2022-09-02T17:01:12.436Z,24.77
2022-09-02T17:03:40.288Z,23.33
2022-09-02T17:06:07.843Z,23.77
2022-09-02T17:08:35.219Z,22.47
2022-09-02T17:11:12.472Z,18.17
2022-09-02T17:13:40.748Z,24.17
2022-09-02T17:16:08.103Z,23.37
2022-09-02T17:18:35.659Z,28.13
2022-09-02T17:21:11.497Z,25.23
2022-09-02T17:23:38.483Z,32.03
2022-09-02T17:26:05.354Z,22.00
2022-09-02T17:28:32.216Z,20.70
2022-09-02T17:31:00.434Z,13.30
2022-09-02T17:33:27.379Z,8.33
2022-09-02T17:35:58.123Z,13.30
2022-09-02T17:38:27.294Z,16.20
2022-09-02T17:41:12.937Z,11.90
2022-09-02T17:43:39.914Z,8.17
2022-09-02T17:46:07.441Z,4.33
2022-09-02T17:48:53.719Z,3.90
2022-09-02T17:51:22.126Z,4.83
2022-09-02T17:53:49.090Z,7.10
2022-09-02T17:56:35.296Z,5.80
2022-09-02T17:59:20.764Z,8.27
2022-09-02T18:02:08.205Z,7.30
2022-09-02T18:04:53.964Z,5.67
2022-09-02T18:07:33.220Z,4.73
2022-09-02T18:10:00.228Z,3.07
2022-09-02T18:12:27.931Z,3.90
2022-09-02T18:14:58.993Z,5.93
2022-09-02T18:17:46.294Z,6.00
2022-09-02T18:20:17.240Z,5.00
2022-09-02T18:22:47.365Z,3.60
2022-09-02T18:25:21.454Z,5.00
2022-09-02T18:27:48.437Z,4.53
2022-09-02T18:30:26.293Z,3.53
2022-09-02T18:33:12.250Z,2.80
2022-09-02T18:35:39.162Z,3.90
2022-09-02T18:38:28.371Z,4.00
2022-09-02T18:41:02.324Z,3.90
2022-09-02T18:43:40.209Z,4.07
2022-09-02T18:46:08.211Z,4.47
2022-09-02T18:48:36.150Z,3.33
2022-09-02T18:51:24.418Z,2.53
2022-09-02T18:53:55.710Z,3.20
2022-09-02T18:56:29.409Z,3.97
2022-09-02T18:59:03.153Z,2.67
2022-09-02T19:01:31.097Z,2.97
2022-09-02T19:03:59.459Z,2.97
2022-09-02T19:06:29.165Z,2.87
2022-09-02T19:09:00.044Z,3.23
2022-09-02T19:11:27.583Z,3.00
2022-09-02T19:14:11.960Z,3.50
2022-09-02T19:16:39.133Z,3.63
2022-09-02T19:19:09.647Z,2.57
2022-09-02T19:22:02.077Z,2.83
2022-09-02T19:24:32.777Z,2.27
2022-09-02T19:27:02.711Z,2.47
2022-09-02T19:29:29.575Z,2.37
2022-09-02T19:31:56.526Z,3.17
2022-09-02T19:34:24.547Z,2.97
2022-09-02T19:36:52.834Z,3.00
2022-09-02T19:39:19.737Z,3.17
2022-09-02T19:41:49.231Z,3.00
2022-09-02T19:44:17.629Z,2.93
2022-09-02T19:47:20.956Z,3.00
2022-09-02T19:49:31.567Z,3.80
2022-09-02T19:51:58.559Z,3.30
2022-09-02T19:54:26.736Z,3.93
2022-09-02T19:56:53.757Z,2.90
2022-09-02T19:59:20.565Z,3.37
2022-09-02T20:01:47.638Z,3.27
2022-09-02T20:04:14.534Z,3.07
2022-09-02T20:06:41.535Z,2.90
2022-09-02T20:09:08.381Z,2.40
2022-09-02T20:11:35.361Z,2.80
2022-09-02T20:14:05.527Z,3.00
2022-09-02T20:16:33.350Z,3.27
2022-09-02T20:19:00.343Z,3.63
2022-09-02T20:21:28.590Z,2.97
2022-09-02T20:23:58.617Z,3.33
2022-09-02T20:26:31.248Z,3.83
2022-09-02T20:29:01.244Z,3.07
2022-09-02T20:31:40.974Z,3.20
2022-09-02T20:34:11.207Z,2.60
2022-09-02T20:36:45.327Z,3.20
2022-09-02T20:39:41.410Z,3.57
2022-09-02T20:42:12.556Z,2.73
2022-09-02T20:44:52.454Z,4.40
2022-09-02T20:47:31.699Z,3.30
2022-09-02T20:50:01.667Z,2.87
2022-09-02T20:52:35.577Z,2.77
2022-09-02T20:55:15.541Z,2.73
2022-09-02T20:58:16.422Z,2.83
2022-09-02T21:01:03.590Z,2.60
2022-09-02T21:03:50.903Z,2.83
2022-09-02T21:06:21.062Z,2.87
2022-09-02T21:08:57.170Z,3.33
2022-09-02T21:11:27.435Z,3.07
2022-09-02T21:14:00.804Z,3.23
2022-09-02T21:16:32.763Z,3.70
2022-09-02T21:19:05.992Z,3.70
2022-09-02T21:21:42.202Z,3.83
2022-09-02T21:24:29.474Z,3.67
2022-09-02T21:27:02.519Z,3.37
2022-09-02T21:29:37.954Z,2.33
2022-09-02T21:32:08.933Z,3.50
2022-09-02T21:34:51.285Z,2.73
2022-09-02T21:37:20.329Z,3.13
2022-09-02T21:39:51.891Z,2.70
2022-09-02T21:42:41.661Z,2.37
2022-09-02T21:45:21.117Z,2.30
2022-09-02T21:48:01.009Z,2.83
2022-09-02T21:50:34.105Z,2.60
2022-09-02T21:53:08.707Z,2.67
2022-09-02T21:55:48.265Z,2.37
2022-09-02T21:58:15.183Z,2.10
2022-09-02T22:00:46.121Z,3.10
2022-09-02T22:03:14.360Z,2.50
2022-09-02T22:05:48.406Z,2.87
2022-09-02T22:08:27.645Z,2.80
2022-09-02T22:11:06.227Z,2.30
2022-09-02T22:13:33.785Z,2.93
2022-09-02T22:16:13.622Z,2.00
2022-09-02T22:18:42.898Z,2.80
2022-09-02T22:21:19.031Z,2.37
2022-09-02T22:23:46.094Z,2.67
2022-09-02T22:26:19.020Z,2.23
2022-09-02T22:28:48.805Z,2.77
2022-09-02T22:31:18.212Z,3.30
2022-09-02T22:33:49.310Z,2.50
2022-09-02T22:36:36.766Z,2.30
2022-09-02T22:39:05.133Z,1.90
2022-09-02T22:41:34.985Z,1.97
2022-09-02T22:44:20.473Z,1.57
2022-09-02T22:47:18.791Z,1.67
2022-09-02T22:50:09.209Z,1.87
2022-09-02T22:52:46.181Z,2.10
2022-09-02T22:55:14.031Z,2.03
2022-09-02T22:57:44.491Z,1.90
2022-09-02T23:00:15.693Z,1.60
2022-09-02T23:03:09.098Z,2.10
2022-09-02T23:06:05.331Z,1.83
2022-09-02T23:08:35.715Z,1.70
2022-09-02T23:11:06.965Z,2.10
2022-09-02T23:13:36.956Z,2.10
2022-09-02T23:16:12.106Z,1.50
2022-09-02T23:18:39.922Z,1.93
2022-09-02T23:21:30.941Z,2.03
2022-09-02T23:24:04.323Z,1.83
2022-09-02T23:26:47.438Z,1.80
2022-09-02T23:29:14.360Z,2.07
2022-09-02T23:31:59.925Z,1.77
2022-09-02T23:34:28.669Z,1.63
2022-09-02T23:37:17.150Z,1.90
2022-09-02T23:39:53.373Z,1.73
2022-09-02T23:42:21.384Z,1.80
2022-09-02T23:44:49.178Z,1.60
2022-09-02T23:47:37.749Z,1.73
2022-09-02T23:50:04.796Z,1.40
2022-09-02T23:52:56.645Z,1.87
2022-09-02T23:55:29.631Z,2.20
2022-09-02T23:57:56.933Z,2.07
